sensor_id;sensor_type;location;lat;lon;timestamp;P1;durP1;ratioP1;P2;durP2;ratioP2
10847;SDS011;5477;48.806;9.154;2023-09-19T00:01:08;1.10;;;1.00;;
10847;SDS011;5477;48.806;9.154;2023-09-19T00:03:40;1.90;;;1.30;;
10847;SDS011;5477;48.806;9.154;2023-09-19T00:06:09;1.80;;;1.20;;
10847;SDS011;5477;48.806;9.154;2023-09-19T00:08:39;1.30;;;0.90;;
10847;SDS011;5477;48.806;9.154;2023-09-19T00:11:10;3.73;;;1.00;;
10847;SDS011;5477;48.806;9.154;2023-09-19T00:13:38;2.30;;;1.37;;
10847;SDS011;5477;48.806;9.154;2023-09-19T00:16:08;1.63;;;0.97;;
10847;SDS011;5477;48.806;9.154;2023-09-19T00:18:39;1.20;;;1.10;;
10847;SDS011;5477;48.806;9.154;2023-09-19T00:21:08;2.33;;;1.00;;
10847;SDS011;5477;48.806;9.154;2023-09-19T00:23:37;1.20;;;1.10;;
10847;SDS011;5477;48.806;9.154;2023-09-19T00:26:07;1.00;;;0.80;;
10847;SDS011;5477;48.806;9.154;2023-09-19T00:28:35;2.13;;;1.03;;
10847;SDS011;5477;48.806;9.154;2023-09-19T00:31:03;1.93;;;1.03;;
10847;SDS011;5477;48.806;9.154;2023-09-19T00:33:32;1.77;;;1.00;;
10847;SDS011;5477;48.806;9.154;2023-09-19T00:36:02;1.57;;;1.10;;
10847;SDS011;5477;48.806;9.154;2023-09-19T00:38:32;1.53;;;1.10;;
10847;SDS011;5477;48.806;9.154;2023-09-19T00:41:00;2.07;;;0.93;;
10847;SDS011;5477;48.806;9.154;2023-09-19T00:43:29;1.03;;;0.90;;
10847;SDS011;5477;48.806;9.154;2023-09-19T00:46:01;1.57;;;0.93;;
10847;SDS011;5477;48.806;9.154;2023-09-19T00:48:31;1.83;;;1.20;;
10847;SDS011;5477;48.806;9.154;2023-09-19T00:51:03;1.40;;;1.00;;
10847;SDS011;5477;48.806;9.154;2023-09-19T00:53:32;2.27;;;1.10;;
10847;SDS011;5477;48.806;9.154;2023-09-19T00:56:01;3.30;;;1.20;;
10847;SDS011;5477;48.806;9.154;2023-09-19T00:58:31;2.57;;;1.10;;
10847;SDS011;5477;48.806;9.154;2023-09-19T01:01:01;1.60;;;1.10;;
10847;SDS011;5477;48.806;9.154;2023-09-19T01:03:29;1.43;;;1.23;;
10847;SDS011;5477;48.806;9.154;2023-09-19T01:05:57;1.30;;;1.20;;
10847;SDS011;5477;48.806;9.154;2023-09-19T01:08:30;2.90;;;1.30;;
10847;SDS011;5477;48.806;9.154;2023-09-19T01:10:59;1.83;;;0.90;;
10847;SDS011;5477;48.806;9.154;2023-09-19T01:13:31;2.87;;;1.20;;
10847;SDS011;5477;48.806;9.154;2023-09-19T01:16:10;2.17;;;1.10;;
10847;SDS011;5477;48.806;9.154;2023-09-19T01:18:47;1.67;;;1.07;;
10847;SDS011;5477;48.806;9.154;2023-09-19T01:21:26;2.03;;;1.10;;
10847;SDS011;5477;48.806;9.154;2023-09-19T01:24:07;1.47;;;1.00;;
10847;SDS011;5477;48.806;9.154;2023-09-19T01:26:56;3.27;;;1.10;;
10847;SDS011;5477;48.806;9.154;2023-09-19T01:29:45;2.30;;;1.10;;
10847;SDS011;5477;48.806;9.154;2023-09-19T01:32:17;2.27;;;1.10;;
10847;SDS011;5477;48.806;9.154;2023-09-19T01:34:50;1.33;;;1.10;;
10847;SDS011;5477;48.806;9.154;2023-09-19T01:37:20;1.37;;;0.93;;
10847;SDS011;5477;48.806;9.154;2023-09-19T01:39:53;3.40;;;0.97;;
10847;SDS011;5477;48.806;9.154;2023-09-19T01:42:27;1.60;;;1.13;;
10847;SDS011;5477;48.806;9.154;2023-09-19T01:45:03;2.20;;;1.10;;
10847;SDS011;5477;48.806;9.154;2023-09-19T01:47:37;2.20;;;1.10;;
10847;SDS011;5477;48.806;9.154;2023-09-19T01:50:12;1.67;;;1.03;;
10847;SDS011;5477;48.806;9.154;2023-09-19T01:52:47;3.30;;;0.90;;
10847;SDS011;5477;48.806;9.154;2023-09-19T01:55:20;2.97;;;1.13;;
10847;SDS011;5477;48.806;9.154;2023-09-19T01:57:51;3.47;;;1.00;;
10847;SDS011;5477;48.806;9.154;2023-09-19T02:00:24;1.33;;;0.90;;
10847;SDS011;5477;48.806;9.154;2023-09-19T02:02:54;1.77;;;1.17;;
10847;SDS011;5477;48.806;9.154;2023-09-19T02:05:25;1.53;;;0.93;;
10847;SDS011;5477;48.806;9.154;2023-09-19T02:07:54;1.20;;;0.90;;
10847;SDS011;5477;48.806;9.154;2023-09-19T02:10:25;3.00;;;1.10;;
10847;SDS011;5477;48.806;9.154;2023-09-19T02:12:53;1.33;;;0.83;;
10847;SDS011;5477;48.806;9.154;2023-09-19T02:15:22;1.37;;;0.80;;
10847;SDS011;5477;48.806;9.154;2023-09-19T02:17:50;2.53;;;1.00;;
10847;SDS011;5477;48.806;9.154;2023-09-19T02:20:21;1.70;;;1.00;;
10847;SDS011;5477;48.806;9.154;2023-09-19T02:22:49;0.80;;;0.77;;
10847;SDS011;5477;48.806;9.154;2023-09-19T02:25:18;2.10;;;0.97;;
10847;SDS011;5477;48.806;9.154;2023-09-19T02:27:46;1.50;;;0.90;;
10847;SDS011;5477;48.806;9.154;2023-09-19T02:30:14;1.10;;;1.00;;
10847;SDS011;5477;48.806;9.154;2023-09-19T02:32:46;1.90;;;1.10;;
10847;SDS011;5477;48.806;9.154;2023-09-19T02:35:16;1.50;;;1.00;;
10847;SDS011;5477;48.806;9.154;2023-09-19T02:37:47;2.17;;;1.00;;
10847;SDS011;5477;48.806;9.154;2023-09-19T02:40:16;1.00;;;0.80;;
10847;SDS011;5477;48.806;9.154;2023-09-19T02:42:48;2.33;;;1.03;;
10847;SDS011;5477;48.806;9.154;2023-09-19T02:45:22;1.50;;;0.90;;
10847;SDS011;5477;48.806;9.154;2023-09-19T02:47:50;1.90;;;1.00;;
10847;SDS011;5477;48.806;9.154;2023-09-19T02:50:19;1.37;;;0.80;;
10847;SDS011;5477;48.806;9.154;2023-09-19T02:52:48;1.20;;;0.90;;
10847;SDS011;5477;48.806;9.154;2023-09-19T02:55:17;1.20;;;0.90;;
10847;SDS011;5477;48.806;9.154;2023-09-19T02:57:48;1.20;;;1.00;;
10847;SDS011;5477;48.806;9.154;2023-09-19T03:00:19;1.63;;;1.07;;
10847;SDS011;5477;48.806;9.154;2023-09-19T03:02:48;1.80;;;1.20;;
10847;SDS011;5477;48.806;9.154;2023-09-19T03:05:18;1.27;;;1.00;;
10847;SDS011;5477;48.806;9.154;2023-09-19T03:07:49;0.93;;;0.83;;
10847;SDS011;5477;48.806;9.154;2023-09-19T03:10:19;3.23;;;0.80;;
10847;SDS011;5477;48.806;9.154;2023-09-19T03:12:48;1.60;;;1.00;;
10847;SDS011;5477;48.806;9.154;2023-09-19T03:15:17;1.50;;;1.10;;
10847;SDS011;5477;48.806;9.154;2023-09-19T03:17:48;1.70;;;1.27;;
10847;SDS011;5477;48.806;9.154;2023-09-19T03:20:20;2.07;;;1.00;;
10847;SDS011;5477;48.806;9.154;2023-09-19T03:22:50;1.30;;;0.97;;
10847;SDS011;5477;48.806;9.154;2023-09-19T03:25:20;1.57;;;0.97;;
10847;SDS011;5477;48.806;9.154;2023-09-19T03:27:51;1.50;;;1.07;;
10847;SDS011;5477;48.806;9.154;2023-09-19T03:30:20;1.20;;;1.10;;
10847;SDS011;5477;48.806;9.154;2023-09-19T03:32:49;1.27;;;1.10;;
10847;SDS011;5477;48.806;9.154;2023-09-19T03:35:18;2.07;;;1.10;;
10847;SDS011;5477;48.806;9.154;2023-09-19T03:37:47;1.77;;;0.93;;
10847;SDS011;5477;48.806;9.154;2023-09-19T03:40:17;2.07;;;1.10;;
10847;SDS011;5477;48.806;9.154;2023-09-19T03:42:48;1.53;;;1.00;;
10847;SDS011;5477;48.806;9.154;2023-09-19T03:45:16;1.33;;;1.00;;
10847;SDS011;5477;48.806;9.154;2023-09-19T03:47:49;1.90;;;0.97;;
10847;SDS011;5477;48.806;9.154;2023-09-19T03:50:19;1.27;;;1.07;;
10847;SDS011;5477;48.806;9.154;2023-09-19T03:52:48;1.93;;;1.20;;
10847;SDS011;5477;48.806;9.154;2023-09-19T03:55:18;1.23;;;1.00;;
10847;SDS011;5477;48.806;9.154;2023-09-19T03:57:47;3.87;;;1.27;;
10847;SDS011;5477;48.806;9.154;2023-09-19T04:00:16;1.73;;;1.27;;
10847;SDS011;5477;48.806;9.154;2023-09-19T04:02:47;1.47;;;0.97;;
10847;SDS011;5477;48.806;9.154;2023-09-19T04:05:16;1.33;;;0.90;;
10847;SDS011;5477;48.806;9.154;2023-09-19T04:07:45;2.70;;;1.00;;
10847;SDS011;5477;48.806;9.154;2023-09-19T04:10:13;1.63;;;1.30;;
10847;SDS011;5477;48.806;9.154;2023-09-19T04:12:51;1.70;;;1.03;;
10847;SDS011;5477;48.806;9.154;2023-09-19T04:15:21;1.33;;;1.20;;
10847;SDS011;5477;48.806;9.154;2023-09-19T04:17:52;2.57;;;1.20;;
10847;SDS011;5477;48.806;9.154;2023-09-19T04:20:20;1.77;;;1.10;;
10847;SDS011;5477;48.806;9.154;2023-09-19T04:22:50;2.03;;;1.07;;
10847;SDS011;5477;48.806;9.154;2023-09-19T04:25:18;1.93;;;1.30;;
10847;SDS011;5477;48.806;9.154;2023-09-19T04:27:46;2.17;;;1.23;;
10847;SDS011;5477;48.806;9.154;2023-09-19T04:30:16;2.20;;;1.40;;
10847;SDS011;5477;48.806;9.154;2023-09-19T04:32:44;2.13;;;1.53;;
10847;SDS011;5477;48.806;9.154;2023-09-19T04:35:17;1.60;;;1.30;;
10847;SDS011;5477;48.806;9.154;2023-09-19T04:37:45;1.50;;;1.30;;
10847;SDS011;5477;48.806;9.154;2023-09-19T04:40:14;1.87;;;0.90;;
10847;SDS011;5477;48.806;9.154;2023-09-19T04:42:44;3.33;;;1.20;;
10847;SDS011;5477;48.806;9.154;2023-09-19T04:45:13;1.40;;;1.13;;
10847;SDS011;5477;48.806;9.154;2023-09-19T04:47:42;1.77;;;1.10;;
10847;SDS011;5477;48.806;9.154;2023-09-19T04:50:10;1.53;;;1.23;;
10847;SDS011;5477;48.806;9.154;2023-09-19T04:52:40;1.53;;;1.03;;
10847;SDS011;5477;48.806;9.154;2023-09-19T04:55:10;2.97;;;1.20;;
10847;SDS011;5477;48.806;9.154;2023-09-19T04:57:44;1.93;;;1.37;;
10847;SDS011;5477;48.806;9.154;2023-09-19T05:00:13;3.03;;;1.60;;
10847;SDS011;5477;48.806;9.154;2023-09-19T05:02:44;2.43;;;1.50;;
10847;SDS011;5477;48.806;9.154;2023-09-19T05:05:12;2.67;;;1.40;;
10847;SDS011;5477;48.806;9.154;2023-09-19T05:07:41;1.43;;;1.17;;
10847;SDS011;5477;48.806;9.154;2023-09-19T05:10:10;2.97;;;1.40;;
10847;SDS011;5477;48.806;9.154;2023-09-19T05:12:39;2.43;;;1.20;;
10847;SDS011;5477;48.806;9.154;2023-09-19T05:15:07;3.37;;;1.30;;
10847;SDS011;5477;48.806;9.154;2023-09-19T05:17:36;2.13;;;1.23;;
10847;SDS011;5477;48.806;9.154;2023-09-19T05:20:06;2.50;;;1.40;;
10847;SDS011;5477;48.806;9.154;2023-09-19T05:22:39;2.03;;;1.50;;
10847;SDS011;5477;48.806;9.154;2023-09-19T05:25:07;3.20;;;2.07;;
10847;SDS011;5477;48.806;9.154;2023-09-19T05:27:35;2.20;;;1.50;;
10847;SDS011;5477;48.806;9.154;2023-09-19T05:30:03;2.23;;;1.50;;
10847;SDS011;5477;48.806;9.154;2023-09-19T05:32:33;3.70;;;1.40;;
10847;SDS011;5477;48.806;9.154;2023-09-19T05:35:01;2.47;;;1.20;;
10847;SDS011;5477;48.806;9.154;2023-09-19T05:37:31;1.83;;;1.20;;
10847;SDS011;5477;48.806;9.154;2023-09-19T05:39:59;6.37;;;1.80;;
10847;SDS011;5477;48.806;9.154;2023-09-19T05:42:26;5.37;;;1.40;;
10847;SDS011;5477;48.806;9.154;2023-09-19T05:44:54;2.67;;;1.73;;
10847;SDS011;5477;48.806;9.154;2023-09-19T05:47:23;2.90;;;1.60;;
10847;SDS011;5477;48.806;9.154;2023-09-19T05:49:51;2.70;;;1.40;;
10847;SDS011;5477;48.806;9.154;2023-09-19T05:52:20;3.57;;;1.73;;
10847;SDS011;5477;48.806;9.154;2023-09-19T05:54:50;3.23;;;1.80;;
10847;SDS011;5477;48.806;9.154;2023-09-19T05:57:17;2.77;;;1.83;;
10847;SDS011;5477;48.806;9.154;2023-09-19T05:59:46;2.33;;;1.70;;
10847;SDS011;5477;48.806;9.154;2023-09-19T06:02:15;2.47;;;1.77;;
10847;SDS011;5477;48.806;9.154;2023-09-19T06:04:45;2.23;;;1.40;;
10847;SDS011;5477;48.806;9.154;2023-09-19T06:07:13;3.47;;;1.70;;
10847;SDS011;5477;48.806;9.154;2023-09-19T06:09:43;3.13;;;1.73;;
10847;SDS011;5477;48.806;9.154;2023-09-19T06:12:12;4.23;;;1.90;;
10847;SDS011;5477;48.806;9.154;2023-09-19T06:14:43;3.87;;;1.90;;
10847;SDS011;5477;48.806;9.154;2023-09-19T06:17:11;3.83;;;2.03;;
10847;SDS011;5477;48.806;9.154;2023-09-19T06:19:39;2.13;;;1.63;;
10847;SDS011;5477;48.806;9.154;2023-09-19T06:22:07;3.27;;;1.70;;
10847;SDS011;5477;48.806;9.154;2023-09-19T06:24:36;4.77;;;1.90;;
10847;SDS011;5477;48.806;9.154;2023-09-19T06:27:04;4.87;;;2.13;;
10847;SDS011;5477;48.806;9.154;2023-09-19T06:29:34;5.53;;;2.10;;
10847;SDS011;5477;48.806;9.154;2023-09-19T06:32:06;5.23;;;2.17;;
10847;SDS011;5477;48.806;9.154;2023-09-19T06:34:36;3.23;;;2.10;;
10847;SDS011;5477;48.806;9.154;2023-09-19T06:37:04;2.53;;;1.60;;
10847;SDS011;5477;48.806;9.154;2023-09-19T06:39:33;5.17;;;2.40;;
10847;SDS011;5477;48.806;9.154;2023-09-19T06:42:01;3.33;;;2.20;;
10847;SDS011;5477;48.806;9.154;2023-09-19T06:44:29;4.00;;;1.87;;
10847;SDS011;5477;48.806;9.154;2023-09-19T06:46:59;4.80;;;2.10;;
10847;SDS011;5477;48.806;9.154;2023-09-19T06:49:27;3.13;;;1.73;;
10847;SDS011;5477;48.806;9.154;2023-09-19T06:51:57;2.73;;;1.87;;
10847;SDS011;5477;48.806;9.154;2023-09-19T06:54:26;3.53;;;2.10;;
10847;SDS011;5477;48.806;9.154;2023-09-19T06:56:57;4.20;;;1.93;;
10847;SDS011;5477;48.806;9.154;2023-09-19T06:59:26;3.13;;;1.83;;
10847;SDS011;5477;48.806;9.154;2023-09-19T07:01:54;4.73;;;1.90;;
10847;SDS011;5477;48.806;9.154;2023-09-19T07:04:23;4.70;;;1.90;;
10847;SDS011;5477;48.806;9.154;2023-09-19T07:06:52;4.47;;;1.80;;
10847;SDS011;5477;48.806;9.154;2023-09-19T07:09:20;5.50;;;2.00;;
10847;SDS011;5477;48.806;9.154;2023-09-19T07:11:48;3.23;;;1.70;;
10847;SDS011;5477;48.806;9.154;2023-09-19T07:14:17;5.97;;;2.00;;
10847;SDS011;5477;48.806;9.154;2023-09-19T07:16:45;3.27;;;2.00;;
10847;SDS011;5477;48.806;9.154;2023-09-19T07:19:16;2.00;;;1.60;;
10847;SDS011;5477;48.806;9.154;2023-09-19T07:21:46;3.73;;;1.80;;
10847;SDS011;5477;48.806;9.154;2023-09-19T07:24:16;3.33;;;1.80;;
10847;SDS011;5477;48.806;9.154;2023-09-19T07:26:45;4.93;;;1.80;;
10847;SDS011;5477;48.806;9.154;2023-09-19T07:29:13;3.97;;;1.73;;
10847;SDS011;5477;48.806;9.154;2023-09-19T07:31:41;3.53;;;1.50;;
10847;SDS011;5477;48.806;9.154;2023-09-19T07:34:10;3.97;;;1.80;;
10847;SDS011;5477;48.806;9.154;2023-09-19T07:36:38;5.83;;;1.97;;
10847;SDS011;5477;48.806;9.154;2023-09-19T07:39:09;5.80;;;1.87;;
10847;SDS011;5477;48.806;9.154;2023-09-19T07:41:48;3.87;;;1.77;;
10847;SDS011;5477;48.806;9.154;2023-09-19T07:44:16;4.57;;;1.60;;
10847;SDS011;5477;48.806;9.154;2023-09-19T07:46:46;4.83;;;2.00;;
10847;SDS011;5477;48.806;9.154;2023-09-19T07:49:17;2.77;;;1.87;;
10847;SDS011;5477;48.806;9.154;2023-09-19T07:51:45;6.03;;;1.93;;
10847;SDS011;5477;48.806;9.154;2023-09-19T07:54:15;3.73;;;1.70;;
10847;SDS011;5477;48.806;9.154;2023-09-19T07:56:43;3.90;;;1.63;;
10847;SDS011;5477;48.806;9.154;2023-09-19T07:59:12;3.67;;;1.70;;
10847;SDS011;5477;48.806;9.154;2023-09-19T08:01:40;2.10;;;1.50;;
10847;SDS011;5477;48.806;9.154;2023-09-19T08:04:09;3.47;;;1.70;;
10847;SDS011;5477;48.806;9.154;2023-09-19T08:06:37;5.10;;;1.80;;
10847;SDS011;5477;48.806;9.154;2023-09-19T08:09:05;4.80;;;1.70;;
10847;SDS011;5477;48.806;9.154;2023-09-19T08:11:38;2.83;;;1.60;;
10847;SDS011;5477;48.806;9.154;2023-09-19T08:14:06;3.03;;;1.70;;
10847;SDS011;5477;48.806;9.154;2023-09-19T08:16:35;3.93;;;1.70;;
10847;SDS011;5477;48.806;9.154;2023-09-19T08:19:03;3.37;;;1.60;;
10847;SDS011;5477;48.806;9.154;2023-09-19T08:21:32;3.30;;;1.60;;
10847;SDS011;5477;48.806;9.154;2023-09-19T08:24:00;4.07;;;1.63;;
10847;SDS011;5477;48.806;9.154;2023-09-19T08:26:30;3.10;;;1.60;;
10847;SDS011;5477;48.806;9.154;2023-09-19T08:28:59;2.27;;;1.37;;
10847;SDS011;5477;48.806;9.154;2023-09-19T08:31:32;3.30;;;1.40;;
10847;SDS011;5477;48.806;9.154;2023-09-19T08:34:01;2.80;;;1.60;;
10847;SDS011;5477;48.806;9.154;2023-09-19T08:36:29;2.77;;;1.40;;
10847;SDS011;5477;48.806;9.154;2023-09-19T08:38:57;2.60;;;1.63;;
10847;SDS011;5477;48.806;9.154;2023-09-19T08:41:25;4.57;;;1.40;;
10847;SDS011;5477;48.806;9.154;2023-09-19T08:43:53;2.60;;;1.63;;
10847;SDS011;5477;48.806;9.154;2023-09-19T08:46:22;2.30;;;1.70;;
10847;SDS011;5477;48.806;9.154;2023-09-19T08:48:58;2.27;;;1.57;;
10847;SDS011;5477;48.806;9.154;2023-09-19T08:51:33;2.80;;;1.30;;
10847;SDS011;5477;48.806;9.154;2023-09-19T08:54:07;2.40;;;1.50;;
10847;SDS011;5477;48.806;9.154;2023-09-19T08:56:36;1.40;;;1.20;;
10847;SDS011;5477;48.806;9.154;2023-09-19T08:59:06;3.40;;;1.30;;
10847;SDS011;5477;48.806;9.154;2023-09-19T09:01:36;3.37;;;1.30;;
10847;SDS011;5477;48.806;9.154;2023-09-19T09:04:08;1.57;;;1.13;;
10847;SDS011;5477;48.806;9.154;2023-09-19T09:06:40;1.60;;;1.10;;
10847;SDS011;5477;48.806;9.154;2023-09-19T09:09:09;2.43;;;1.43;;
10847;SDS011;5477;48.806;9.154;2023-09-19T09:11:38;2.17;;;1.10;;
10847;SDS011;5477;48.806;9.154;2023-09-19T09:14:07;2.40;;;1.40;;
10847;SDS011;5477;48.806;9.154;2023-09-19T09:16:37;4.83;;;1.40;;
10847;SDS011;5477;48.806;9.154;2023-09-19T09:19:06;2.50;;;1.27;;
10847;SDS011;5477;48.806;9.154;2023-09-19T09:21:34;2.57;;;1.30;;
10847;SDS011;5477;48.806;9.154;2023-09-19T09:26:55;2.07;;;1.40;;
10847;SDS011;5477;48.806;9.154;2023-09-19T09:29:43;2.00;;;1.40;;
10847;SDS011;5477;48.806;9.154;2023-09-19T09:32:18;2.43;;;1.20;;
10847;SDS011;5477;48.806;9.154;2023-09-19T09:34:48;2.30;;;1.50;;
10847;SDS011;5477;48.806;9.154;2023-09-19T09:37:19;3.03;;;1.67;;
10847;SDS011;5477;48.806;9.154;2023-09-19T09:39:51;1.40;;;1.10;;
10847;SDS011;5477;48.806;9.154;2023-09-19T09:42:28;2.23;;;1.37;;
10847;SDS011;5477;48.806;9.154;2023-09-19T09:45:12;3.03;;;1.40;;
10847;SDS011;5477;48.806;9.154;2023-09-19T09:47:45;3.23;;;1.30;;
10847;SDS011;5477;48.806;9.154;2023-09-19T09:50:24;2.90;;;1.20;;
10847;SDS011;5477;48.806;9.154;2023-09-19T09:52:55;2.00;;;1.30;;
10847;SDS011;5477;48.806;9.154;2023-09-19T09:58:27;2.87;;;1.50;;
10847;SDS011;5477;48.806;9.154;2023-09-19T10:00:56;2.17;;;1.17;;
10847;SDS011;5477;48.806;9.154;2023-09-19T10:03:34;1.93;;;1.27;;
10847;SDS011;5477;48.806;9.154;2023-09-19T10:06:07;2.43;;;1.10;;
10847;SDS011;5477;48.806;9.154;2023-09-19T10:08:58;1.27;;;1.10;;
10847;SDS011;5477;48.806;9.154;2023-09-19T10:11:43;1.37;;;1.20;;
10847;SDS011;5477;48.806;9.154;2023-09-19T10:14:12;3.63;;;1.20;;
10847;SDS011;5477;48.806;9.154;2023-09-19T10:16:45;2.90;;;1.33;;
10847;SDS011;5477;48.806;9.154;2023-09-19T10:19:19;2.53;;;1.30;;
10847;SDS011;5477;48.806;9.154;2023-09-19T10:21:53;2.10;;;1.30;;
10847;SDS011;5477;48.806;9.154;2023-09-19T10:24:22;3.00;;;1.40;;
10847;SDS011;5477;48.806;9.154;2023-09-19T10:26:52;1.57;;;1.20;;
10847;SDS011;5477;48.806;9.154;2023-09-19T10:29:21;1.73;;;1.03;;
10847;SDS011;5477;48.806;9.154;2023-09-19T10:31:52;2.90;;;1.20;;
10847;SDS011;5477;48.806;9.154;2023-09-19T10:34:22;4.20;;;1.27;;
10847;SDS011;5477;48.806;9.154;2023-09-19T10:36:52;1.73;;;1.10;;
10847;SDS011;5477;48.806;9.154;2023-09-19T10:39:21;3.70;;;1.20;;
10847;SDS011;5477;48.806;9.154;2023-09-19T10:41:51;2.43;;;1.13;;
10847;SDS011;5477;48.806;9.154;2023-09-19T10:44:21;2.10;;;0.97;;
10847;SDS011;5477;48.806;9.154;2023-09-19T10:46:51;2.27;;;1.10;;
10847;SDS011;5477;48.806;9.154;2023-09-19T10:49:21;1.37;;;1.17;;
10847;SDS011;5477;48.806;9.154;2023-09-19T10:51:52;1.67;;;1.30;;
10847;SDS011;5477;48.806;9.154;2023-09-19T10:54:25;1.40;;;1.10;;
10847;SDS011;5477;48.806;9.154;2023-09-19T10:56:56;1.63;;;1.17;;
10847;SDS011;5477;48.806;9.154;2023-09-19T10:59:25;1.60;;;1.27;;
10847;SDS011;5477;48.806;9.154;2023-09-19T11:02:15;1.50;;;1.13;;
10847;SDS011;5477;48.806;9.154;2023-09-19T11:04:46;1.53;;;1.20;;
10847;SDS011;5477;48.806;9.154;2023-09-19T11:07:15;2.43;;;1.47;;
10847;SDS011;5477;48.806;9.154;2023-09-19T11:09:44;3.70;;;1.10;;
10847;SDS011;5477;48.806;9.154;2023-09-19T11:24:28;1.47;;;1.10;;
10847;SDS011;5477;48.806;9.154;2023-09-19T11:27:11;0.90;;;0.80;;
10847;SDS011;5477;48.806;9.154;2023-09-19T11:29:41;2.03;;;1.20;;
10847;SDS011;5477;48.806;9.154;2023-09-19T11:32:09;1.93;;;1.20;;
10847;SDS011;5477;48.806;9.154;2023-09-19T11:34:37;1.43;;;1.00;;
10847;SDS011;5477;48.806;9.154;2023-09-19T11:40:09;1.43;;;1.10;;
10847;SDS011;5477;48.806;9.154;2023-09-19T11:42:43;2.40;;;1.20;;
10847;SDS011;5477;48.806;9.154;2023-09-19T11:48:24;2.67;;;0.90;;
10847;SDS011;5477;48.806;9.154;2023-09-19T11:50:53;3.53;;;1.10;;
10847;SDS011;5477;48.806;9.154;2023-09-19T11:53:23;1.83;;;1.00;;
10847;SDS011;5477;48.806;9.154;2023-09-19T11:56:00;2.10;;;1.00;;
10847;SDS011;5477;48.806;9.154;2023-09-19T11:58:28;1.40;;;0.80;;
10847;SDS011;5477;48.806;9.154;2023-09-19T12:00:59;1.60;;;1.00;;
10847;SDS011;5477;48.806;9.154;2023-09-19T12:03:34;1.43;;;1.00;;
10847;SDS011;5477;48.806;9.154;2023-09-19T12:06:10;2.80;;;1.00;;
10847;SDS011;5477;48.806;9.154;2023-09-19T12:08:41;1.43;;;0.90;;
10847;SDS011;5477;48.806;9.154;2023-09-19T12:11:15;1.40;;;0.80;;
10847;SDS011;5477;48.806;9.154;2023-09-19T12:13:44;2.77;;;1.07;;
10847;SDS011;5477;48.806;9.154;2023-09-19T12:16:14;1.30;;;0.97;;
10847;SDS011;5477;48.806;9.154;2023-09-19T12:18:43;1.67;;;0.97;;
10847;SDS011;5477;48.806;9.154;2023-09-19T12:21:26;1.07;;;0.87;;
10847;SDS011;5477;48.806;9.154;2023-09-19T12:24:04;1.93;;;1.13;;
10847;SDS011;5477;48.806;9.154;2023-09-19T12:26:41;3.03;;;1.03;;
10847;SDS011;5477;48.806;9.154;2023-09-19T12:29:12;3.73;;;1.30;;
10847;SDS011;5477;48.806;9.154;2023-09-19T12:31:48;1.53;;;1.30;;
10847;SDS011;5477;48.806;9.154;2023-09-19T12:34:21;1.70;;;1.17;;
10847;SDS011;5477;48.806;9.154;2023-09-19T12:37:03;1.63;;;1.10;;
10847;SDS011;5477;48.806;9.154;2023-09-19T12:39:40;2.80;;;1.73;;
10847;SDS011;5477;48.806;9.154;2023-09-19T12:42:11;1.17;;;1.07;;
10847;SDS011;5477;48.806;9.154;2023-09-19T12:44:41;1.67;;;1.30;;
10847;SDS011;5477;48.806;9.154;2023-09-19T12:47:11;2.40;;;1.20;;
10847;SDS011;5477;48.806;9.154;2023-09-19T12:52:43;1.80;;;1.10;;
10847;SDS011;5477;48.806;9.154;2023-09-19T12:55:19;3.30;;;1.80;;
10847;SDS011;5477;48.806;9.154;2023-09-19T12:58:09;3.20;;;1.33;;
10847;SDS011;5477;48.806;9.154;2023-09-19T13:00:42;2.10;;;1.27;;
10847;SDS011;5477;48.806;9.154;2023-09-19T13:03:12;1.53;;;1.10;;
10847;SDS011;5477;48.806;9.154;2023-09-19T13:05:53;2.33;;;1.00;;
10847;SDS011;5477;48.806;9.154;2023-09-19T13:08:26;2.10;;;1.10;;
10847;SDS011;5477;48.806;9.154;2023-09-19T13:10:59;1.67;;;1.23;;
10847;SDS011;5477;48.806;9.154;2023-09-19T13:13:30;1.40;;;1.00;;
10847;SDS011;5477;48.806;9.154;2023-09-19T13:15:58;3.93;;;1.50;;
10847;SDS011;5477;48.806;9.154;2023-09-19T13:18:29;2.37;;;1.30;;
10847;SDS011;5477;48.806;9.154;2023-09-19T13:21:05;4.50;;;1.40;;
10847;SDS011;5477;48.806;9.154;2023-09-19T13:23:34;2.47;;;1.33;;
10847;SDS011;5477;48.806;9.154;2023-09-19T13:26:03;4.03;;;1.10;;
10847;SDS011;5477;48.806;9.154;2023-09-19T13:28:34;2.77;;;1.10;;
10847;SDS011;5477;48.806;9.154;2023-09-19T13:31:02;3.17;;;1.20;;
10847;SDS011;5477;48.806;9.154;2023-09-19T13:33:31;2.37;;;1.20;;
10847;SDS011;5477;48.806;9.154;2023-09-19T13:36:00;1.23;;;0.90;;
10847;SDS011;5477;48.806;9.154;2023-09-19T13:38:28;1.50;;;1.20;;
10847;SDS011;5477;48.806;9.154;2023-09-19T13:40:56;2.03;;;1.20;;
10847;SDS011;5477;48.806;9.154;2023-09-19T13:43:25;2.90;;;1.20;;
10847;SDS011;5477;48.806;9.154;2023-09-19T13:45:54;1.87;;;1.30;;
10847;SDS011;5477;48.806;9.154;2023-09-19T13:48:24;2.60;;;1.13;;
10847;SDS011;5477;48.806;9.154;2023-09-19T13:50:52;1.70;;;1.40;;
10847;SDS011;5477;48.806;9.154;2023-09-19T13:53:22;4.03;;;1.30;;
10847;SDS011;5477;48.806;9.154;2023-09-19T13:55:52;2.70;;;1.33;;
10847;SDS011;5477;48.806;9.154;2023-09-19T13:58:20;2.70;;;1.13;;
10847;SDS011;5477;48.806;9.154;2023-09-19T14:00:50;1.40;;;1.30;;
10847;SDS011;5477;48.806;9.154;2023-09-19T14:03:23;2.37;;;1.27;;
10847;SDS011;5477;48.806;9.154;2023-09-19T14:05:51;3.17;;;1.40;;
10847;SDS011;5477;48.806;9.154;2023-09-19T14:08:19;1.63;;;1.17;;
10847;SDS011;5477;48.806;9.154;2023-09-19T14:10:48;2.20;;;1.10;;
10847;SDS011;5477;48.806;9.154;2023-09-19T14:13:16;1.73;;;1.10;;
10847;SDS011;5477;48.806;9.154;2023-09-19T14:15:44;3.17;;;1.30;;
10847;SDS011;5477;48.806;9.154;2023-09-19T14:18:12;4.17;;;1.50;;
10847;SDS011;5477;48.806;9.154;2023-09-19T14:20:42;5.73;;;1.23;;
10847;SDS011;5477;48.806;9.154;2023-09-19T14:23:10;2.10;;;1.23;;
10847;SDS011;5477;48.806;9.154;2023-09-19T14:25:38;2.70;;;1.27;;
10847;SDS011;5477;48.806;9.154;2023-09-19T14:28:07;2.80;;;1.37;;
10847;SDS011;5477;48.806;9.154;2023-09-19T14:30:35;1.73;;;1.20;;
10847;SDS011;5477;48.806;9.154;2023-09-19T14:33:04;2.80;;;1.40;;
10847;SDS011;5477;48.806;9.154;2023-09-19T14:35:36;1.87;;;1.27;;
10847;SDS011;5477;48.806;9.154;2023-09-19T14:38:05;1.83;;;1.27;;
10847;SDS011;5477;48.806;9.154;2023-09-19T14:40:33;3.40;;;1.33;;
10847;SDS011;5477;48.806;9.154;2023-09-19T14:43:02;3.13;;;1.13;;
10847;SDS011;5477;48.806;9.154;2023-09-19T14:45:31;2.47;;;1.20;;
10847;SDS011;5477;48.806;9.154;2023-09-19T14:47:59;1.43;;;1.20;;
10847;SDS011;5477;48.806;9.154;2023-09-19T14:50:27;2.25;;;1.25;;
10847;SDS011;5477;48.806;9.154;2023-09-19T14:52:56;3.70;;;1.40;;
10847;SDS011;5477;48.806;9.154;2023-09-19T14:55:29;2.20;;;1.67;;
10847;SDS011;5477;48.806;9.154;2023-09-19T14:58:00;2.08;;;1.20;;
10847;SDS011;5477;48.806;9.154;2023-09-19T15:00:29;1.37;;;1.00;;
10847;SDS011;5477;48.806;9.154;2023-09-19T15:02:59;2.38;;;1.40;;
10847;SDS011;5477;48.806;9.154;2023-09-19T15:05:28;2.13;;;1.30;;
10847;SDS011;5477;48.806;9.154;2023-09-19T15:07:56;2.40;;;1.20;;
10847;SDS011;5477;48.806;9.154;2023-09-19T15:10:25;1.10;;;0.90;;
10847;SDS011;5477;48.806;9.154;2023-09-19T15:12:54;2.27;;;1.00;;
10847;SDS011;5477;48.806;9.154;2023-09-19T15:15:22;1.30;;;1.20;;
10847;SDS011;5477;48.806;9.154;2023-09-19T15:17:50;1.67;;;1.00;;
10847;SDS011;5477;48.806;9.154;2023-09-19T15:20:18;1.83;;;1.00;;
10847;SDS011;5477;48.806;9.154;2023-09-19T15:22:47;1.80;;;1.20;;
10847;SDS011;5477;48.806;9.154;2023-09-19T15:25:15;2.33;;;1.07;;
10847;SDS011;5477;48.806;9.154;2023-09-19T15:27:44;1.70;;;1.10;;
10847;SDS011;5477;48.806;9.154;2023-09-19T15:30:14;1.30;;;0.93;;
10847;SDS011;5477;48.806;9.154;2023-09-19T15:32:42;2.00;;;1.10;;
10847;SDS011;5477;48.806;9.154;2023-09-19T15:35:10;1.80;;;1.27;;
10847;SDS011;5477;48.806;9.154;2023-09-19T15:37:40;1.87;;;1.27;;
10847;SDS011;5477;48.806;9.154;2023-09-19T15:40:08;2.57;;;1.20;;
10847;SDS011;5477;48.806;9.154;2023-09-19T15:42:39;1.87;;;0.93;;
10847;SDS011;5477;48.806;9.154;2023-09-19T15:45:08;1.87;;;1.00;;
10847;SDS011;5477;48.806;9.154;2023-09-19T15:47:38;2.57;;;1.10;;